地図

経路データ

SID SEASON NUMBER BASIN SUBBASIN NAME ISO_TIME NATURE LAT LON WMO_WIND WMO_PRES WMO_AGENCY TRACK_TYPE DIST2LAND LANDFALL IFLAG USA_AGENCY USA_ATCF_ID USA_LAT USA_LON USA_RECORD USA_STATUS USA_WIND USA_PRES USA_SSHS USA_R34_NE USA_R34_SE USA_R34_SW USA_R34_NW USA_R50_NE USA_R50_SE USA_R50_SW USA_R50_NW USA_R64_NE USA_R64_SE USA_R64_SW USA_R64_NW USA_POCI USA_ROCI USA_RMW USA_EYE TOKYO_LAT TOKYO_LON TOKYO_GRADE TOKYO_WIND TOKYO_PRES TOKYO_R50_DIR TOKYO_R50_LONG TOKYO_R50_SHORT TOKYO_R30_DIR TOKYO_R30_LONG TOKYO_R30_SHORT TOKYO_LAND CMA_LAT CMA_LON CMA_CAT CMA_WIND CMA_PRES HKO_LAT HKO_LON HKO_CAT HKO_WIND HKO_PRES NEWDELHI_LAT NEWDELHI_LON NEWDELHI_GRADE NEWDELHI_WIND NEWDELHI_PRES NEWDELHI_CI NEWDELHI_DP NEWDELHI_POCI REUNION_LAT REUNION_LON REUNION_TYPE REUNION_WIND REUNION_PRES REUNION_TNUM REUNION_CI REUNION_RMW REUNION_R34_NE REUNION_R34_SE REUNION_R34_SW REUNION_R34_NW REUNION_R50_NE REUNION_R50_SE REUNION_R50_SW REUNION_R50_NW REUNION_R64_NE REUNION_R64_SE REUNION_R64_SW REUNION_R64_NW BOM_LAT BOM_LON BOM_TYPE BOM_WIND BOM_PRES BOM_TNUM BOM_CI BOM_RMW BOM_R34_NE BOM_R34_SE BOM_R34_SW BOM_R34_NW BOM_R50_NE BOM_R50_SE BOM_R50_SW BOM_R50_NW BOM_R64_NE BOM_R64_SE BOM_R64_SW BOM_R64_NW BOM_ROCI BOM_POCI BOM_EYE BOM_POS_METHOD BOM_PRES_METHOD NADI_LAT NADI_LON NADI_CAT NADI_WIND NADI_PRES WELLINGTON_LAT WELLINGTON_LON WELLINGTON_WIND WELLINGTON_PRES DS824_LAT DS824_LON DS824_STAGE DS824_WIND DS824_PRES TD9636_LAT TD9636_LON TD9636_STAGE TD9636_WIND TD9636_PRES TD9635_LAT TD9635_LON TD9635_WIND TD9635_PRES TD9635_ROCI NEUMANN_LAT NEUMANN_LON NEUMANN_CLASS NEUMANN_WIND NEUMANN_PRES MLC_LAT MLC_LON MLC_CLASS MLC_WIND MLC_PRES USA_GUST BOM_GUST BOM_GUST_PER REUNION_GUST REUNION_GUST_PER USA_SEAHGT USA_SEARAD_NE USA_SEARAD_SE USA_SEARAD_SW USA_SEARAD_NW STORM_SPEED STORM_DIR
1884021S10063 1884 2 SI MM NOT_NAMED 1884-01-21 06:00:00 NR -9.65000 63.4500 reunion main 1330 1300 _____O____O___ -1 -9.30000 63.9000 99 9.90000 -10.0000 63.0000 7 5 226
1884021S10063 1884 2 SI MM NOT_NAMED 1884-01-21 09:00:00 NR -9.80917 63.2836 main 1300 1270 _____P____P___ -1 -9.36039 63.8403 99 -10.2580 62.7268 7 5 226
1884021S10063 1884 2 SI MM NOT_NAMED 1884-01-21 12:00:00 NR -9.96859 63.1142 main 1270 1250 _____P____P___ -1 -9.42454 63.7756 99 -10.5126 62.4528 7 5 227
1884021S10063 1884 2 SI MM NOT_NAMED 1884-01-21 15:00:00 NR -10.1286 62.9391 main 1250 1225 _____P____P___ -1 -9.49624 63.7009 99 -10.7610 62.1773 7 5 228
1884021S10063 1884 2 SI MM NOT_NAMED 1884-01-21 18:00:00 NR -10.2896 62.7555 main 1225 1206 _____P____O___ -1 -9.57928 63.6110 99 -11.0000 61.9000 7 5 229
1884021S10063 1884 2 SI MM NOT_NAMED 1884-01-21 21:00:00 NR -10.4520 62.5618 main 1195 1176 _____P____P___ -1 -9.67741 63.5011 99 -11.2266 61.6225 7 5 230
1884021S10063 1884 2 SI MM NOT_NAMED 1884-01-22 00:00:00 NR -10.6160 62.3605 main 1176 1147 _____P____P___ -1 -9.79440 63.3660 99 -11.4375 61.3550 7 5 231
1884021S10063 1884 2 SI MM NOT_NAMED 1884-01-22 03:00:00 NR -10.7819 62.1554 main 1147 1127 _____P____P___ -1 -9.93402 63.2007 99 -11.6297 61.1100 7 5 230
1884021S10063 1884 2 SI MM NOT_NAMED 1884-01-22 06:00:00 NR -10.9500 61.9500 reunion main 1127 1098 _____O____O___ -1 -10.1000 63.0000 99 9.90000 -11.8000 60.9000 7 5 230
1884021S10063 1884 2 SI MM NOT_NAMED 1884-01-22 09:00:00 NR -11.1203 61.7501 main 1098 1069 _____P____P___ -1 -10.2943 62.7613 99 -11.9464 60.7389 7 5 229
1884021S10063 1884 2 SI MM NOT_NAMED 1884-01-22 12:00:00 NR -11.2919 61.5521 main 1069 1040 _____P____P___ -1 -10.5115 62.4920 99 -12.0723 60.6123 7 5 228
1884021S10063 1884 2 SI MM NOT_NAMED 1884-01-22 15:00:00 NR -11.4658 61.3534 main 1040 1022 _____P____P___ -1 -10.7445 62.2022 99 -12.1871 60.5045 7 5 228
1884021S10063 1884 2 SI MM NOT_NAMED 1884-01-22 18:00:00 NR -11.6432 61.1510 main 1022 989 _____P____O___ -1 -10.9863 61.9020 99 -12.3000 60.4000 7 5 229
1884021S10063 1884 2 SI MM NOT_NAMED 1884-01-22 21:00:00 NR -11.8274 60.9342 main 989 961 _____P____P___ -1 -11.2298 61.6014 99 -12.4250 60.2669 7 6 229
1884021S10063 1884 2 SI MM NOT_NAMED 1884-01-23 00:00:00 NR -12.0089 60.7229 main 961 933 _____P____P___ -1 -11.4678 61.3107 99 -12.5500 60.1350 7 5 228
1884021S10063 1884 2 SI MM NOT_NAMED 1884-01-23 03:00:00 NR -12.1843 60.5254 main 933 919 _____P____P___ -1 -11.6936 61.0402 99 -12.6750 60.0106 7 5 227
1884021S10063 1884 2 SI MM NOT_NAMED 1884-01-23 06:00:00 NR -12.3500 60.3500 reunion main 919 891 _____O____O___ -1 -11.9000 60.8000 99 9.90000 -12.8000 59.9000 7 4 225
1884021S10063 1884 2 SI MM NOT_NAMED 1884-01-23 09:00:00 NR -12.4874 60.2196 main 891 877 _____P____P___ -1 -12.0580 60.6246 99 -12.9168 59.8146 7 4 221
1884021S10063 1884 2 SI MM NOT_NAMED 1884-01-23 12:00:00 NR -12.6168 60.1094 main 877 863 _____P____P___ -1 -12.1987 60.4765 99 -13.0349 59.7424 7 3 218
1884021S10063 1884 2 SI MM NOT_NAMED 1884-01-23 15:00:00 NR -12.7434 60.0126 main 863 839 _____P____P___ -1 -12.3261 60.3512 99 -13.1606 59.6740 7 3 216
1884021S10063 1884 2 SI MM NOT_NAMED 1884-01-23 18:00:00 NR -12.8721 59.9219 main 839 825 _____P____O___ -1 -12.4442 60.2438 99 -13.3000 59.6000 7 3 214
1884021S10063 1884 2 SI MM NOT_NAMED 1884-01-23 21:00:00 NR -13.0127 59.8224 main 825 801 _____P____P___ -1 -12.5567 60.1497 99 -13.4688 59.4951 7 3 214
1884021S10063 1884 2 SI MM NOT_NAMED 1884-01-24 00:00:00 NR -13.1588 59.7247 main 801 787 _____P____P___ -1 -12.6676 60.0642 99 -13.6500 59.3851 7 3 212
1884021S10063 1884 2 SI MM NOT_NAMED 1884-01-24 03:00:00 NR -13.3060 59.6326 main 787 776 _____P____P___ -1 -12.7808 59.9826 99 -13.8313 59.2826 7 3 210
1884021S10063 1884 2 SI MM NOT_NAMED 1884-01-24 06:00:00 NR -13.4500 59.5500 reunion main 776 752 _____O____O___ -1 -12.9000 59.9000 99 9.90000 -14.0000 59.2000 7 3 210
1884021S10063 1884 2 SI MM NOT_NAMED 1884-01-24 09:00:00 NR -13.5919 59.4636 main 752 738 _____P____P___ -1 -13.0445 59.7820 99 -14.1393 59.1453 7 3 210
1884021S10063 1884 2 SI MM NOT_NAMED 1884-01-24 12:00:00 NR -13.7294 59.3885 main 738 714 _____P____P___ -1 -13.1938 59.6645 99 -14.2650 59.1124 7 3 207
1884021S10063 1884 2 SI MM NOT_NAMED 1884-01-24 15:00:00 NR -13.8646 59.3241 main 714 703 _____P____P___ -1 -13.3461 59.5499 99 -14.3831 59.0984 7 3 203
1884021S10063 1884 2 SI MM NOT_NAMED 1884-01-24 18:00:00 NR -14.0000 59.2701 main 703 690 _____P____O___ -1 -13.5001 59.4403 99 -14.5000 59.1000 7 3 200
1884021S10063 1884 2 SI MM NOT_NAMED 1884-01-24 21:00:00 NR -14.1436 59.2244 main 690 668 _____P____P___ -1 -13.6540 59.3382 99 -14.6331 59.1106 7 3 195
1884021S10063 1884 2 SI MM NOT_NAMED 1884-01-25 00:00:00 NR -14.2857 59.1904 main 668 657 _____P____P___ -1 -13.8063 59.2458 99 -14.7650 59.1349 7 3 192
1884021S10063 1884 2 SI MM NOT_NAMED 1884-01-25 03:00:00 NR -14.4224 59.1663 main 657 646 _____P____P___ -1 -13.9555 59.1657 99 -14.8894 59.1668 7 3 190
1884021S10063 1884 2 SI MM NOT_NAMED 1884-01-25 06:00:00 NR -14.5500 59.1500 reunion main 646 622 _____O____O___ -1 -14.1000 59.1000 99 9.90000 -15.0000 59.2000 7 2 187
1884021S10063 1884 2 SI MM NOT_NAMED 1884-01-25 09:00:00 NR -14.6647 59.1331 main 622 611 _____P____P___ -1 -14.2400 59.0453 99 -15.0894 59.2210 7 2 0
1884021S10063 1884 2 SI MM NOT_NAMED 1884-01-25 12:00:00 NR -14.7707 59.1234 main 611 600 _____P____P___ -1 -14.3764 59.0042 99 -15.1650 59.2425 7 2 0
1884021S10063 1884 2 SI MM NOT_NAMED 1884-01-25 15:00:00 NR -14.8711 59.1219 main 600 589 _____P____P___ -1 -14.5090 58.9760 99 -15.2331 59.2678 7 2 0
1884021S10063 1884 2 SI MM NOT_NAMED 1884-01-25 18:00:00 NR -14.9687 59.1299 main 589 578 _____P____O___ -1 -14.6373 58.9598 99 -15.3000 59.3000 7 2 174
1884021S10063 1884 2 SI MM NOT_NAMED 1884-01-25 21:00:00 NR -15.0598 59.1388 main 578 578 _____P____P___ -1 -14.7610 58.9549 99 -15.3587 59.3226 7 2 177
1884021S10063 1884 2 SI MM NOT_NAMED 1884-01-26 00:00:00 NR -15.1497 59.1579 main 581 570 _____P____P___ -1 -14.8796 58.9605 99 -15.4199 59.3552 7 2 162
1884021S10063 1884 2 SI MM NOT_NAMED 1884-01-26 03:00:00 NR -15.2444 59.1930 main 570 560 _____P____P___ -1 -14.9927 58.9758 99 -15.4962 59.4102 7 2 155
1884021S10063 1884 2 SI MM NOT_NAMED 1884-01-26 06:00:00 NR -15.3500 59.2500 reunion main 563 541 _____O____O___ -1 -15.1000 59.0000 99 9.90000 -15.6000 59.5000 7 3 151
1884021S10063 1884 2 SI MM NOT_NAMED 1884-01-26 09:00:00 NR -15.4681 59.3204 main 541 534 _____P____P___ -1 -15.1898 59.0059 99 -15.7463 59.6349 7 3 147
1884021S10063 1884 2 SI MM NOT_NAMED 1884-01-26 12:00:00 NR -15.5960 59.4123 main 534 527 _____P____P___ -1 -15.2720 59.0198 99 -15.9200 59.8049 7 3 143
1884021S10063 1884 2 SI MM NOT_NAMED 1884-01-26 15:00:00 NR -15.7293 59.5207 main 527 511 _____P____P___ -1 -15.3499 59.0440 99 -16.1088 59.9975 7 3 140
1884021S10063 1884 2 SI MM NOT_NAMED 1884-01-26 18:00:00 NR -15.8635 59.6404 main 511 505 _____P____O___ -1 -15.4271 59.0808 99 -16.3000 60.2000 7 3 139
1884021S10063 1884 2 SI MM NOT_NAMED 1884-01-26 21:00:00 NR -15.9911 59.7586 main 509 499 _____P____P___ -1 -15.5072 59.1324 99 -16.4749 60.3848 7 4 137
1884021S10063 1884 2 SI MM NOT_NAMED 1884-01-27 00:00:00 NR -16.1218 59.8895 main 504 494 _____P____P___ -1 -15.5937 59.2013 99 -16.6499 60.5777 7 4 135
1884021S10063 1884 2 SI MM NOT_NAMED 1884-01-27 03:00:00 NR -16.2575 60.0357 main 489 485 _____P____P___ -1 -15.6901 59.2897 99 -16.8249 60.7817 7 4 133
1884021S10063 1884 2 SI MM NOT_NAMED 1884-01-27 06:00:00 NR -16.4000 60.2000 reunion main 490 484 _____O____O___ -1 -15.8000 59.4000 99 9.90000 -17.0000 61.0000 7 5 132
1884021S10063 1884 2 SI MM NOT_NAMED 1884-01-27 09:00:00 NR -16.5659 60.3929 main 484 481 _____P____P___ -1 -15.9405 59.5342 99 -17.1914 61.2517 7 5 131
1884021S10063 1884 2 SI MM NOT_NAMED 1884-01-27 12:00:00 NR -16.7372 60.6031 main 488 477 _____P____P___ -1 -16.0943 59.6914 99 -17.3802 61.5147 7 5 130
1884021S10063 1884 2 SI MM NOT_NAMED 1884-01-27 15:00:00 NR -16.9059 60.8191 main 484 483 _____P____P___ -1 -16.2579 59.8677 99 -17.5539 61.7704 7 5 129
1884021S10063 1884 2 SI MM NOT_NAMED 1884-01-27 18:00:00 NR -17.0639 61.0297 main 483 483 _____P____O___ -1 -16.4278 60.0593 99 -17.7000 62.0000 7 5 127
1884021S10063 1884 2 SI MM NOT_NAMED 1884-01-27 21:00:00 NR -17.1897 61.2066 main 491 491 _____P____P___ -1 -16.6005 60.2623 99 -17.7790 62.1509 7 4 126
1884021S10063 1884 2 SI MM NOT_NAMED 1884-01-28 00:00:00 NR -17.3034 61.3755 main 499 499 _____P____P___ -1 -16.7724 60.4727 99 -17.8345 62.2784 7 4 125
1884021S10063 1884 2 SI MM NOT_NAMED 1884-01-28 03:00:00 NR -17.4189 61.5516 main 509 503 _____P____P___ -1 -16.9400 60.6866 99 -17.8977 62.4166 7 4 125
1884021S10063 1884 2 SI MM NOT_NAMED 1884-01-28 06:00:00 NR -17.5500 61.7500 reunion main 520 514 _____O____O___ -1 -17.1000 60.9000 99 9.90000 -18.0000 62.6000 7 5 125
1884021S10063 1884 2 SI MM NOT_NAMED 1884-01-28 09:00:00 NR -17.7175 61.9956 main 526 526 _____P____P___ -1 -17.2448 61.1088 99 -18.1903 62.8824 7 6 126
1884021S10063 1884 2 SI MM NOT_NAMED 1884-01-28 12:00:00 NR -17.9021 62.2666 main 542 537 _____P____P___ -1 -17.3839 61.3213 99 -18.4204 63.2119 7 6 125
1884021S10063 1884 2 SI MM NOT_NAMED 1884-01-28 15:00:00 NR -18.0913 62.5474 main 551 551 _____P____P___ -1 -17.5174 61.5344 99 -18.6652 63.5605 7 6 125
1884021S10063 1884 2 SI MM NOT_NAMED 1884-01-28 18:00:00 NR -18.2726 62.8225 main 570 570 _____P____O___ -1 -17.6453 61.7449 99 -18.9000 63.9000 7 6 124
1884021S10063 1884 2 SI MM NOT_NAMED 1884-01-28 21:00:00 NR -18.4324 63.0738 main 595 591 _____P____P___ -1 -17.7675 61.9499 99 -19.0973 64.1977 7 6 124
1884021S10063 1884 2 SI MM NOT_NAMED 1884-01-29 00:00:00 NR -18.5819 63.3132 main 607 607 _____P____P___ -1 -17.8840 62.1462 99 -19.2798 64.4802 7 5 123
1884021S10063 1884 2 SI MM NOT_NAMED 1884-01-29 03:00:00 NR -18.7211 63.5391 main 623 623 _____P____P___ -1 -17.9948 62.3306 99 -19.4474 64.7477 7 5 123
1884021S10063 1884 2 SI MM NOT_NAMED 1884-01-29 06:00:00 NR -18.8500 63.7500 reunion main 650 637 _____O____O___ -1 -18.1000 62.5000 99 9.90000 -19.6000 65.0000 7 5 124
1884021S10063 1884 2 SI MM NOT_NAMED 1884-01-29 09:00:00 NR -18.9712 63.9388 main 655 655 _____P____P___ -1 -18.1991 62.6340 99 -19.7433 65.2436 7 4 124
1884021S10063 1884 2 SI MM NOT_NAMED 1884-01-29 12:00:00 NR -19.0821 64.1123 main 672 672 _____P____P___ -1 -18.2918 62.7518 99 -19.8723 65.4727 7 4 124
1884021S10063 1884 2 SI MM NOT_NAMED 1884-01-29 15:00:00 NR -19.1849 64.2744 main 691 691 _____P____P___ -1 -18.3796 62.8583 99 -19.9902 65.6905 7 4 124
1884021S10063 1884 2 SI MM NOT_NAMED 1884-01-29 18:00:00 NR -19.2820 64.4293 main 699 699 _____P____O___ -1 -18.4640 62.9586 99 -20.1000 65.9000 7 3 123
1884021S10063 1884 2 SI MM NOT_NAMED 1884-01-29 21:00:00 NR -19.3756 64.5810 main 718 707 _____P____P___ -1 -18.5468 63.0579 99 -20.2045 66.1042 7 1 129
1884021S10063 1884 2 SI MM NOT_NAMED 1884-01-30 00:00:00 NR -19.3475 64.5084 main 709 699 _____P____P___ -1 -18.6293 63.1611 99 -20.3052 66.3048 7 2 295
1884021S10063 1884 2 SI MM NOT_NAMED 1884-01-30 03:00:00 NR -19.2766 64.3499 main 689 670 _____P____P___ -1 -18.7132 63.2734 99 -20.4033 66.5029 7 5 296
1884021S10063 1884 2 SI MM NOT_NAMED 1884-01-30 06:00:00 NR -19.1400 64.0600 reunion main 672 627 _____O____O___ -1 -18.8000 63.4000 99 9.90000 -20.5000 66.7000 7 8 297
1884021S10063 1884 2 SI MM NOT_NAMED 1884-01-30 09:00:00 NR -18.8915 63.5559 main 627 617 _____P________ -1 -18.8915 63.5559 99 7 4 296
1884021S10063 1884 2 SI MM NOT_NAMED 1884-01-30 12:00:00 NR -18.9847 63.7240 main 634 634 _____P________ -1 -18.9847 63.7240 99 7 4 120
1884021S10063 1884 2 SI MM NOT_NAMED 1884-01-30 15:00:00 NR -19.0799 63.9026 main 652 652 _____P________ -1 -19.0799 63.9026 99 7 4 119
1884021S10063 1884 2 SI MM NOT_NAMED 1884-01-30 18:00:00 NR -19.1775 64.0904 main 670 670 _____P________ -1 -19.1775 64.0904 99 4 119
1884021S10063 1884 2 SI MM NOT_NAMED 1884-01-30 21:00:00 NR -19.2779 64.2855 main 689 689 _____P________ -1 -19.2779 64.2855 99 4 119
1884021S10063 1884 2 SI MM NOT_NAMED 1884-01-31 00:00:00 NR -19.3815 64.4866 main 707 707 _____P________ -1 -19.3815 64.4866 99 4 119
1884021S10063 1884 2 SI MM NOT_NAMED 1884-01-31 03:00:00 NR -19.4887 64.6919 main 726 726 _____P________ -1 -19.4887 64.6919 99 4 119
1884021S10063 1884 2 SI MM NOT_NAMED 1884-01-31 06:00:00 NR -19.6000 64.9000 reunion main 746 746 _____O________ -1 -19.6000 64.9000 99 9.90000 5 120
1884021S10063 1884 2 SI MM NOT_NAMED 1884-01-31 09:00:00 NR -19.7254 65.1201 main 765 765 _____P________ -1 -19.7254 65.1201 99 5 121
1884021S10063 1884 2 SI MM NOT_NAMED 1884-01-31 12:00:00 NR -19.8563 65.3466 main 784 784 _____P________ -1 -19.8563 65.3466 99 5 122
1884021S10063 1884 2 SI MM NOT_NAMED 1884-01-31 15:00:00 NR -19.9898 65.5751 main 814 814 _____P________ -1 -19.9898 65.5751 99 5 122
1884021S10063 1884 2 SI MM NOT_NAMED 1884-01-31 18:00:00 NR -20.1231 65.8016 main 834 834 _____P________ -1 -20.1231 65.8016 99 5 122
1884021S10063 1884 2 SI MM NOT_NAMED 1884-01-31 21:00:00 NR -20.2535 66.0216 main 854 854 _____P________ -1 -20.2535 66.0216 99 5 122
1884021S10063 1884 2 SI MM NOT_NAMED 1884-02-01 00:00:00 NR -20.3782 66.2309 main 875 875 _____P________ -1 -20.3782 66.2309 99 4 123
1884021S10063 1884 2 SI MM NOT_NAMED 1884-02-01 03:00:00 NR -20.4946 66.4252 main 896 896 _____P________ -1 -20.4946 66.4252 99 4 123
1884021S10063 1884 2 SI MM NOT_NAMED 1884-02-01 06:00:00 NR -20.6000 66.6000 reunion main 917 917 _____O________ -1 -20.6000 66.6000 99 9.90000 4 123
1884021S10063 1884 2 SI MM NOT_NAMED 1884-02-01 09:00:00 NR -20.6924 66.7523 main 938 938 _____P________ -1 -20.6924 66.7523 99 3 123
1884021S10063 1884 2 SI MM NOT_NAMED 1884-02-01 12:00:00 NR -20.7727 66.8836 main 948 948 _____P________ -1 -20.7727 66.8836 99 3 124
1884021S10063 1884 2 SI MM NOT_NAMED 1884-02-01 15:00:00 NR -20.8429 66.9971 main 959 959 _____P________ -1 -20.8429 66.9971 99 2 124
1884021S10063 1884 2 SI MM NOT_NAMED 1884-02-01 18:00:00 NR -20.9045 67.0956 main 970 970 _____P________ -1 -20.9045 67.0956 99 2 124
1884021S10063 1884 2 SI MM NOT_NAMED 1884-02-01 21:00:00 NR -20.9593 67.1822 main 980 980 _____P________ -1 -20.9593 67.1822 99 2 124
1884021S10063 1884 2 SI MM NOT_NAMED 1884-02-02 00:00:00 NR -21.0091 67.2598 main 991 991 _____P________ -1 -21.0091 67.2598 99 2 125
1884021S10063 1884 2 SI MM NOT_NAMED 1884-02-02 03:00:00 NR -21.0554 67.3314 main 991 991 _____P________ -1 -21.0554 67.3314 99 2 125
1884021S10063 1884 2 SI MM NOT_NAMED 1884-02-02 06:00:00 NR -21.1000 67.4000 reunion main 1002 _____O________ -1 -21.1000 67.4000 99 9.90000 2 124

IBTrACS Databaseについて

本データベースは、米国NOAAが公開する1842年以降の世界の熱帯低気圧のベストトラックデータアーカイブInternational Best Track Archive for Climate Stewardship (IBTrACS)を、ウェブで閲覧しやすい形式に変換したものです。

最終更新日:2021-12-06